Caldecotte, United Kingdom
Current Conditions -  °F | °C
As of 5:20 PM on Tuesday 21 Oct 2014 (Local Time) from EGTC Reporting Station
Few Clouds Few Clouds  
Wind Chill: 41°   Ceiling: Unl
Heat Index: 48°   Visibility: 6mi
Dew Point: 41°   Wind: 21mph
Humidity: 76%   Direction: 290°WNW
Pressure: 29.83"   Gusts: 37mph
Location:  52.02°N, 0.71°W
Report Text: EGTC 211620Z 29018G32KT 9999 FEW030CB 09/05 Q1010
Loading
Personal Weather Stations






























Interactive Weather Map
Tropical Storm Tracking
New forecast layout! Learn more

10-Day Weather Forecast

Advertisements
Track Severe Weather on mobile